sensor_id;sensor_type;location;lat;lon;timestamp;P1;durP1;ratioP1;P2;durP2;ratioP2
37349;SDS011;23231;52.358;4.926;2023-06-05T00:03:01;9.30;;;5.40;;
37349;SDS011;23231;52.358;4.926;2023-06-05T00:08:01;9.95;;;5.47;;
37349;SDS011;23231;52.358;4.926;2023-06-05T00:13:02;10.68;;;5.60;;
37349;SDS011;23231;52.358;4.926;2023-06-05T00:18:02;8.70;;;5.47;;
37349;SDS011;23231;52.358;4.926;2023-06-05T00:23:04;9.25;;;5.13;;
37349;SDS011;23231;52.358;4.926;2023-06-05T00:28:04;13.77;;;5.30;;
37349;SDS011;23231;52.358;4.926;2023-06-05T00:33:04;8.85;;;4.53;;
37349;SDS011;23231;52.358;4.926;2023-06-05T00:38:05;6.82;;;4.95;;
37349;SDS011;23231;52.358;4.926;2023-06-05T00:43:06;9.75;;;5.00;;
37349;SDS011;23231;52.358;4.926;2023-06-05T00:48:07;8.70;;;4.97;;
37349;SDS011;23231;52.358;4.926;2023-06-05T00:53:07;8.35;;;5.18;;
37349;SDS011;23231;52.358;4.926;2023-06-05T00:58:08;8.30;;;5.28;;
37349;SDS011;23231;52.358;4.926;2023-06-05T01:03:09;8.90;;;4.63;;
37349;SDS011;23231;52.358;4.926;2023-06-05T01:08:11;10.38;;;5.03;;
37349;SDS011;23231;52.358;4.926;2023-06-05T01:13:30;11.13;;;4.93;;
37349;SDS011;23231;52.358;4.926;2023-06-05T01:18:32;8.65;;;5.15;;
37349;SDS011;23231;52.358;4.926;2023-06-05T01:23:32;7.75;;;4.93;;
37349;SDS011;23231;52.358;4.926;2023-06-05T01:28:33;9.85;;;4.93;;
37349;SDS011;23231;52.358;4.926;2023-06-05T01:33:38;7.47;;;4.95;;
37349;SDS011;23231;52.358;4.926;2023-06-05T01:38:44;8.95;;;5.10;;
37349;SDS011;23231;52.358;4.926;2023-06-05T01:43:46;8.85;;;5.10;;
37349;SDS011;23231;52.358;4.926;2023-06-05T01:48:48;8.90;;;4.45;;
37349;SDS011;23231;52.358;4.926;2023-06-05T01:53:48;10.15;;;4.97;;
37349;SDS011;23231;52.358;4.926;2023-06-05T01:58:49;8.20;;;4.35;;
37349;SDS011;23231;52.358;4.926;2023-06-05T02:03:49;9.68;;;5.00;;
37349;SDS011;23231;52.358;4.926;2023-06-05T02:08:50;9.15;;;4.65;;
37349;SDS011;23231;52.358;4.926;2023-06-05T02:13:50;8.80;;;5.00;;
37349;SDS011;23231;52.358;4.926;2023-06-05T02:18:52;9.95;;;5.35;;
37349;SDS011;23231;52.358;4.926;2023-06-05T02:23:53;10.07;;;4.68;;
37349;SDS011;23231;52.358;4.926;2023-06-05T02:28:55;8.23;;;4.65;;
37349;SDS011;23231;52.358;4.926;2023-06-05T02:33:55;8.45;;;4.78;;
37349;SDS011;23231;52.358;4.926;2023-06-05T02:38:56;8.77;;;5.13;;
37349;SDS011;23231;52.358;4.926;2023-06-05T02:43:56;10.05;;;4.70;;
37349;SDS011;23231;52.358;4.926;2023-06-05T02:48:57;9.88;;;4.72;;
37349;SDS011;23231;52.358;4.926;2023-06-05T02:53:57;7.75;;;5.07;;
37349;SDS011;23231;52.358;4.926;2023-06-05T02:58:58;8.52;;;4.70;;
37349;SDS011;23231;52.358;4.926;2023-06-05T03:04:02;9.77;;;5.30;;
37349;SDS011;23231;52.358;4.926;2023-06-05T03:09:03;9.68;;;5.25;;
37349;SDS011;23231;52.358;4.926;2023-06-05T03:14:03;12.18;;;5.47;;
37349;SDS011;23231;52.358;4.926;2023-06-05T03:19:04;9.88;;;5.43;;
37349;SDS011;23231;52.358;4.926;2023-06-05T03:24:06;11.98;;;5.50;;
37349;SDS011;23231;52.358;4.926;2023-06-05T03:29:07;10.73;;;5.93;;
37349;SDS011;23231;52.358;4.926;2023-06-05T03:34:08;10.18;;;5.57;;
37349;SDS011;23231;52.358;4.926;2023-06-05T03:39:08;8.38;;;5.20;;
37349;SDS011;23231;52.358;4.926;2023-06-05T03:44:09;8.18;;;4.50;;
37349;SDS011;23231;52.358;4.926;2023-06-05T03:49:10;8.75;;;4.90;;
37349;SDS011;23231;52.358;4.926;2023-06-05T03:54:10;11.15;;;4.70;;
37349;SDS011;23231;52.358;4.926;2023-06-05T03:59:12;8.27;;;4.82;;
37349;SDS011;23231;52.358;4.926;2023-06-05T04:04:19;7.22;;;4.43;;
37349;SDS011;23231;52.358;4.926;2023-06-05T04:09:20;8.20;;;4.43;;
37349;SDS011;23231;52.358;4.926;2023-06-05T04:14:21;8.02;;;4.53;;
37349;SDS011;23231;52.358;4.926;2023-06-05T04:19:21;7.03;;;4.13;;
37349;SDS011;23231;52.358;4.926;2023-06-05T04:24:22;7.97;;;3.90;;
37349;SDS011;23231;52.358;4.926;2023-06-05T04:29:25;10.05;;;4.57;;
37349;SDS011;23231;52.358;4.926;2023-06-05T04:34:25;7.68;;;4.20;;
37349;SDS011;23231;52.358;4.926;2023-06-05T04:39:26;7.43;;;3.95;;
37349;SDS011;23231;52.358;4.926;2023-06-05T04:44:26;7.03;;;3.70;;
37349;SDS011;23231;52.358;4.926;2023-06-05T04:49:27;7.88;;;3.83;;
37349;SDS011;23231;52.358;4.926;2023-06-05T04:54:28;6.57;;;4.18;;
37349;SDS011;23231;52.358;4.926;2023-06-05T04:59:29;7.63;;;4.10;;
37349;SDS011;23231;52.358;4.926;2023-06-05T05:04:32;8.65;;;4.13;;
37349;SDS011;23231;52.358;4.926;2023-06-05T05:09:33;6.22;;;4.00;;
37349;SDS011;23231;52.358;4.926;2023-06-05T05:14:33;8.88;;;3.90;;
37349;SDS011;23231;52.358;4.926;2023-06-05T05:19:33;7.28;;;4.05;;
37349;SDS011;23231;52.358;4.926;2023-06-05T05:24:34;7.88;;;4.15;;
37349;SDS011;23231;52.358;4.926;2023-06-05T05:29:34;7.50;;;4.45;;
37349;SDS011;23231;52.358;4.926;2023-06-05T05:34:35;7.93;;;3.83;;
37349;SDS011;23231;52.358;4.926;2023-06-05T05:39:35;8.38;;;3.97;;
37349;SDS011;23231;52.358;4.926;2023-06-05T05:44:36;8.18;;;4.20;;
37349;SDS011;23231;52.358;4.926;2023-06-05T05:49:36;7.22;;;3.55;;
37349;SDS011;23231;52.358;4.926;2023-06-05T05:54:37;6.38;;;3.50;;
37349;SDS011;23231;52.358;4.926;2023-06-05T05:59:39;8.40;;;4.07;;
37349;SDS011;23231;52.358;4.926;2023-06-05T06:04:42;7.68;;;3.85;;
37349;SDS011;23231;52.358;4.926;2023-06-05T06:09:44;6.32;;;3.55;;
37349;SDS011;23231;52.358;4.926;2023-06-05T06:14:44;6.88;;;3.90;;
37349;SDS011;23231;52.358;4.926;2023-06-05T06:19:47;7.28;;;3.55;;
37349;SDS011;23231;52.358;4.926;2023-06-05T06:24:48;6.88;;;3.63;;
37349;SDS011;23231;52.358;4.926;2023-06-05T06:29:51;7.90;;;4.45;;
37349;SDS011;23231;52.358;4.926;2023-06-05T06:34:55;5.72;;;3.15;;
37349;SDS011;23231;52.358;4.926;2023-06-05T06:39:56;6.07;;;3.50;;
37349;SDS011;23231;52.358;4.926;2023-06-05T06:44:56;6.25;;;3.20;;
37349;SDS011;23231;52.358;4.926;2023-06-05T06:49:57;5.95;;;3.10;;
37349;SDS011;23231;52.358;4.926;2023-06-05T06:54:58;6.97;;;3.40;;
37349;SDS011;23231;52.358;4.926;2023-06-05T06:59:58;5.93;;;3.20;;
37349;SDS011;23231;52.358;4.926;2023-06-05T07:04:59;4.65;;;2.70;;
37349;SDS011;23231;52.358;4.926;2023-06-05T07:10:00;6.82;;;3.13;;
37349;SDS011;23231;52.358;4.926;2023-06-05T07:15:00;7.85;;;3.30;;
37349;SDS011;23231;52.358;4.926;2023-06-05T07:20:01;5.57;;;2.67;;
37349;SDS011;23231;52.358;4.926;2023-06-05T07:25:02;5.55;;;2.50;;
37349;SDS011;23231;52.358;4.926;2023-06-05T07:30:03;5.97;;;2.55;;
37349;SDS011;23231;52.358;4.926;2023-06-05T07:35:04;7.53;;;3.10;;
37349;SDS011;23231;52.358;4.926;2023-06-05T07:40:06;5.90;;;2.75;;
37349;SDS011;23231;52.358;4.926;2023-06-05T07:45:08;4.88;;;2.90;;
37349;SDS011;23231;52.358;4.926;2023-06-05T07:50:09;5.13;;;2.75;;
37349;SDS011;23231;52.358;4.926;2023-06-05T07:55:09;5.10;;;2.53;;
37349;SDS011;23231;52.358;4.926;2023-06-05T08:00:10;5.32;;;2.78;;
37349;SDS011;23231;52.358;4.926;2023-06-05T08:05:11;5.65;;;3.17;;
37349;SDS011;23231;52.358;4.926;2023-06-05T08:10:14;7.20;;;3.85;;
37349;SDS011;23231;52.358;4.926;2023-06-05T08:15:15;4.90;;;3.17;;
37349;SDS011;23231;52.358;4.926;2023-06-05T08:20:15;8.25;;;3.92;;
37349;SDS011;23231;52.358;4.926;2023-06-05T08:25:16;8.15;;;3.75;;
37349;SDS011;23231;52.358;4.926;2023-06-05T08:30:16;6.22;;;3.42;;
37349;SDS011;23231;52.358;4.926;2023-06-05T08:35:17;5.93;;;3.63;;
37349;SDS011;23231;52.358;4.926;2023-06-05T08:40:18;8.27;;;4.30;;
37349;SDS011;23231;52.358;4.926;2023-06-05T08:45:19;6.40;;;3.50;;
37349;SDS011;23231;52.358;4.926;2023-06-05T08:50:19;9.43;;;4.60;;
37349;SDS011;23231;52.358;4.926;2023-06-05T08:55:19;6.25;;;4.10;;
37349;SDS011;23231;52.358;4.926;2023-06-05T09:00:21;9.63;;;4.30;;
37349;SDS011;23231;52.358;4.926;2023-06-05T09:05:22;6.75;;;4.30;;
37349;SDS011;23231;52.358;4.926;2023-06-05T09:10:27;9.15;;;4.53;;
37349;SDS011;23231;52.358;4.926;2023-06-05T09:15:29;8.15;;;4.05;;
37349;SDS011;23231;52.358;4.926;2023-06-05T09:20:30;6.63;;;3.78;;
37349;SDS011;23231;52.358;4.926;2023-06-05T09:25:47;6.85;;;3.80;;
37349;SDS011;23231;52.358;4.926;2023-06-05T09:30:55;7.43;;;4.18;;
37349;SDS011;23231;52.358;4.926;2023-06-05T09:41:09;6.53;;;3.92;;
37349;SDS011;23231;52.358;4.926;2023-06-05T09:46:11;8.85;;;4.05;;
37349;SDS011;23231;52.358;4.926;2023-06-05T09:51:15;6.80;;;4.00;;
37349;SDS011;23231;52.358;4.926;2023-06-05T09:56:18;9.68;;;4.10;;
37349;SDS011;23231;52.358;4.926;2023-06-05T10:01:22;8.43;;;4.38;;
37349;SDS011;23231;52.358;4.926;2023-06-05T10:06:24;8.20;;;3.83;;
37349;SDS011;23231;52.358;4.926;2023-06-05T10:11:28;8.05;;;4.43;;
37349;SDS011;23231;52.358;4.926;2023-06-05T10:16:28;7.13;;;4.53;;
37349;SDS011;23231;52.358;4.926;2023-06-05T10:21:29;5.63;;;3.38;;
37349;SDS011;23231;52.358;4.926;2023-06-05T10:31:58;6.63;;;4.10;;
37349;SDS011;23231;52.358;4.926;2023-06-05T10:42:43;8.32;;;4.25;;
37349;SDS011;23231;52.358;4.926;2023-06-05T10:47:50;8.38;;;4.47;;
37349;SDS011;23231;52.358;4.926;2023-06-05T10:52:51;7.00;;;4.22;;
37349;SDS011;23231;52.358;4.926;2023-06-05T10:58:12;6.68;;;4.60;;
37349;SDS011;23231;52.358;4.926;2023-06-05T11:03:16;8.32;;;4.60;;
37349;SDS011;23231;52.358;4.926;2023-06-05T11:08:17;7.75;;;4.65;;
37349;SDS011;23231;52.358;4.926;2023-06-05T11:13:19;6.72;;;4.07;;
37349;SDS011;23231;52.358;4.926;2023-06-05T11:18:27;5.75;;;3.67;;
37349;SDS011;23231;52.358;4.926;2023-06-05T11:23:31;7.10;;;4.13;;
37349;SDS011;23231;52.358;4.926;2023-06-05T11:28:41;6.07;;;3.85;;
37349;SDS011;23231;52.358;4.926;2023-06-05T11:33:42;7.70;;;4.32;;
37349;SDS011;23231;52.358;4.926;2023-06-05T11:38:51;6.45;;;4.18;;
37349;SDS011;23231;52.358;4.926;2023-06-05T11:43:53;7.07;;;4.13;;
37349;SDS011;23231;52.358;4.926;2023-06-05T11:48:53;8.23;;;4.32;;
37349;SDS011;23231;52.358;4.926;2023-06-05T11:53:54;7.47;;;3.47;;
37349;SDS011;23231;52.358;4.926;2023-06-05T11:58:57;5.60;;;3.65;;
37349;SDS011;23231;52.358;4.926;2023-06-05T12:04:04;5.88;;;3.65;;
37349;SDS011;23231;52.358;4.926;2023-06-05T12:09:12;6.25;;;3.63;;
37349;SDS011;23231;52.358;4.926;2023-06-05T12:14:30;6.10;;;3.22;;
37349;SDS011;23231;52.358;4.926;2023-06-05T12:19:31;6.85;;;3.60;;
37349;SDS011;23231;52.358;4.926;2023-06-05T12:24:32;5.18;;;3.08;;
37349;SDS011;23231;52.358;4.926;2023-06-05T12:29:36;6.88;;;4.18;;
37349;SDS011;23231;52.358;4.926;2023-06-05T12:34:41;6.13;;;3.97;;
37349;SDS011;23231;52.358;4.926;2023-06-05T12:39:44;5.45;;;3.30;;
37349;SDS011;23231;52.358;4.926;2023-06-05T12:44:45;5.40;;;3.20;;
37349;SDS011;23231;52.358;4.926;2023-06-05T12:49:45;5.10;;;3.50;;
37349;SDS011;23231;52.358;4.926;2023-06-05T12:54:46;5.47;;;3.20;;
37349;SDS011;23231;52.358;4.926;2023-06-05T12:59:47;5.70;;;3.03;;
37349;SDS011;23231;52.358;4.926;2023-06-05T13:04:47;6.90;;;3.80;;
37349;SDS011;23231;52.358;4.926;2023-06-05T13:09:48;6.65;;;3.92;;
37349;SDS011;23231;52.358;4.926;2023-06-05T13:14:50;7.65;;;4.07;;
37349;SDS011;23231;52.358;4.926;2023-06-05T13:19:50;7.40;;;3.90;;
37349;SDS011;23231;52.358;4.926;2023-06-05T13:24:51;7.60;;;3.42;;
37349;SDS011;23231;52.358;4.926;2023-06-05T13:29:51;5.60;;;3.78;;
37349;SDS011;23231;52.358;4.926;2023-06-05T13:34:52;7.00;;;3.58;;
37349;SDS011;23231;52.358;4.926;2023-06-05T13:39:53;5.85;;;3.60;;
37349;SDS011;23231;52.358;4.926;2023-06-05T13:44:54;7.03;;;4.07;;
37349;SDS011;23231;52.358;4.926;2023-06-05T13:49:54;5.95;;;3.60;;
37349;SDS011;23231;52.358;4.926;2023-06-05T13:54:55;6.90;;;3.90;;
37349;SDS011;23231;52.358;4.926;2023-06-05T13:59:55;6.93;;;4.18;;
37349;SDS011;23231;52.358;4.926;2023-06-05T14:04:56;7.20;;;4.20;;
37349;SDS011;23231;52.358;4.926;2023-06-05T14:09:56;7.45;;;4.43;;
37349;SDS011;23231;52.358;4.926;2023-06-05T14:14:58;9.32;;;4.25;;
37349;SDS011;23231;52.358;4.926;2023-06-05T14:19:58;7.13;;;4.18;;
37349;SDS011;23231;52.358;4.926;2023-06-05T14:24:59;6.18;;;3.60;;
37349;SDS011;23231;52.358;4.926;2023-06-05T14:30:00;6.22;;;3.88;;
37349;SDS011;23231;52.358;4.926;2023-06-05T14:35:00;7.38;;;4.03;;
37349;SDS011;23231;52.358;4.926;2023-06-05T14:40:00;6.28;;;4.68;;
37349;SDS011;23231;52.358;4.926;2023-06-05T14:45:04;5.80;;;3.78;;
37349;SDS011;23231;52.358;4.926;2023-06-05T14:50:05;6.93;;;4.22;;
37349;SDS011;23231;52.358;4.926;2023-06-05T14:55:07;8.30;;;4.60;;
37349;SDS011;23231;52.358;4.926;2023-06-05T15:00:08;7.75;;;3.92;;
37349;SDS011;23231;52.358;4.926;2023-06-05T15:05:09;8.10;;;4.03;;
37349;SDS011;23231;52.358;4.926;2023-06-05T15:10:09;7.60;;;5.30;;
37349;SDS011;23231;52.358;4.926;2023-06-05T15:15:12;7.68;;;4.43;;
37349;SDS011;23231;52.358;4.926;2023-06-05T15:20:13;6.10;;;3.55;;
37349;SDS011;23231;52.358;4.926;2023-06-05T15:25:13;7.47;;;4.18;;
37349;SDS011;23231;52.358;4.926;2023-06-05T15:30:13;6.43;;;4.50;;
37349;SDS011;23231;52.358;4.926;2023-06-05T15:35:14;8.02;;;4.57;;
37349;SDS011;23231;52.358;4.926;2023-06-05T15:40:14;7.35;;;3.70;;
37349;SDS011;23231;52.358;4.926;2023-06-05T15:45:15;7.88;;;4.30;;
37349;SDS011;23231;52.358;4.926;2023-06-05T15:50:15;7.40;;;4.60;;
37349;SDS011;23231;52.358;4.926;2023-06-05T15:55:16;6.95;;;4.18;;
37349;SDS011;23231;52.358;4.926;2023-06-05T16:00:20;6.75;;;4.28;;
37349;SDS011;23231;52.358;4.926;2023-06-05T16:05:21;5.57;;;3.70;;
37349;SDS011;23231;52.358;4.926;2023-06-05T16:10:22;8.85;;;4.15;;
37349;SDS011;23231;52.358;4.926;2023-06-05T16:15:23;7.88;;;4.00;;
37349;SDS011;23231;52.358;4.926;2023-06-05T16:20:23;7.28;;;3.80;;
37349;SDS011;23231;52.358;4.926;2023-06-05T16:25:24;9.18;;;4.28;;
37349;SDS011;23231;52.358;4.926;2023-06-05T16:30:25;6.30;;;3.95;;
37349;SDS011;23231;52.358;4.926;2023-06-05T16:35:25;6.97;;;3.75;;
37349;SDS011;23231;52.358;4.926;2023-06-05T16:40:26;8.68;;;4.78;;
37349;SDS011;23231;52.358;4.926;2023-06-05T16:45:26;7.85;;;5.03;;
37349;SDS011;23231;52.358;4.926;2023-06-05T16:50:27;7.03;;;4.65;;
37349;SDS011;23231;52.358;4.926;2023-06-05T16:55:28;7.82;;;4.25;;
37349;SDS011;23231;52.358;4.926;2023-06-05T17:00:28;6.90;;;4.25;;
37349;SDS011;23231;52.358;4.926;2023-06-05T17:05:28;9.32;;;4.90;;
37349;SDS011;23231;52.358;4.926;2023-06-05T17:10:29;7.03;;;4.32;;
37349;SDS011;23231;52.358;4.926;2023-06-05T17:15:32;6.88;;;4.20;;
37349;SDS011;23231;52.358;4.926;2023-06-05T17:20:32;11.15;;;4.80;;
37349;SDS011;23231;52.358;4.926;2023-06-05T17:25:33;8.48;;;4.68;;
37349;SDS011;23231;52.358;4.926;2023-06-05T17:30:33;7.45;;;4.70;;
37349;SDS011;23231;52.358;4.926;2023-06-05T17:35:34;6.57;;;4.10;;
37349;SDS011;23231;52.358;4.926;2023-06-05T17:40:34;7.18;;;4.10;;
37349;SDS011;23231;52.358;4.926;2023-06-05T17:45:36;9.05;;;5.20;;
37349;SDS011;23231;52.358;4.926;2023-06-05T17:50:37;7.82;;;4.78;;
37349;SDS011;23231;52.358;4.926;2023-06-05T17:55:37;8.13;;;4.85;;
37349;SDS011;23231;52.358;4.926;2023-06-05T18:00:38;7.78;;;4.70;;
37349;SDS011;23231;52.358;4.926;2023-06-05T18:05:38;6.40;;;4.15;;
37349;SDS011;23231;52.358;4.926;2023-06-05T18:10:39;10.20;;;4.82;;
37349;SDS011;23231;52.358;4.926;2023-06-05T18:15:39;10.48;;;4.88;;
37349;SDS011;23231;52.358;4.926;2023-06-05T18:20:40;8.30;;;3.80;;
37349;SDS011;23231;52.358;4.926;2023-06-05T18:25:41;8.55;;;4.28;;
37349;SDS011;23231;52.358;4.926;2023-06-05T18:30:43;7.35;;;4.57;;
37349;SDS011;23231;52.358;4.926;2023-06-05T18:35:43;8.30;;;4.57;;
37349;SDS011;23231;52.358;4.926;2023-06-05T18:40:44;8.32;;;4.63;;
37349;SDS011;23231;52.358;4.926;2023-06-05T18:45:45;10.18;;;5.00;;
37349;SDS011;23231;52.358;4.926;2023-06-05T18:50:45;8.25;;;4.60;;
37349;SDS011;23231;52.358;4.926;2023-06-05T18:55:46;9.32;;;5.28;;
37349;SDS011;23231;52.358;4.926;2023-06-05T19:00:46;9.25;;;4.80;;
37349;SDS011;23231;52.358;4.926;2023-06-05T19:05:46;9.40;;;4.43;;
37349;SDS011;23231;52.358;4.926;2023-06-05T19:10:47;9.25;;;4.40;;
37349;SDS011;23231;52.358;4.926;2023-06-05T19:15:47;7.70;;;4.32;;
37349;SDS011;23231;52.358;4.926;2023-06-05T19:20:48;8.30;;;4.97;;
37349;SDS011;23231;52.358;4.926;2023-06-05T19:25:48;10.63;;;5.53;;
37349;SDS011;23231;52.358;4.926;2023-06-05T19:30:50;9.52;;;4.93;;
37349;SDS011;23231;52.358;4.926;2023-06-05T19:35:50;8.85;;;4.85;;
37349;SDS011;23231;52.358;4.926;2023-06-05T19:40:51;12.20;;;4.90;;
37349;SDS011;23231;52.358;4.926;2023-06-05T19:45:51;9.05;;;4.97;;
37349;SDS011;23231;52.358;4.926;2023-06-05T19:50:52;9.20;;;4.95;;
37349;SDS011;23231;52.358;4.926;2023-06-05T19:55:52;9.40;;;4.97;;
37349;SDS011;23231;52.358;4.926;2023-06-05T20:00:52;13.73;;;5.82;;
37349;SDS011;23231;52.358;4.926;2023-06-05T20:05:53;8.77;;;4.93;;
37349;SDS011;23231;52.358;4.926;2023-06-05T20:10:53;11.52;;;4.85;;
37349;SDS011;23231;52.358;4.926;2023-06-05T20:15:54;9.25;;;5.00;;
37349;SDS011;23231;52.358;4.926;2023-06-05T20:20:55;10.77;;;4.95;;
37349;SDS011;23231;52.358;4.926;2023-06-05T20:25:56;11.15;;;4.93;;
37349;SDS011;23231;52.358;4.926;2023-06-05T20:30:56;9.75;;;4.43;;
37349;SDS011;23231;52.358;4.926;2023-06-05T20:35:57;10.57;;;4.55;;
37349;SDS011;23231;52.358;4.926;2023-06-05T20:40:57;10.75;;;4.90;;
37349;SDS011;23231;52.358;4.926;2023-06-05T20:45:59;7.93;;;4.60;;
37349;SDS011;23231;52.358;4.926;2023-06-05T20:51:01;11.50;;;5.00;;
37349;SDS011;23231;52.358;4.926;2023-06-05T20:56:03;10.50;;;4.78;;
37349;SDS011;23231;52.358;4.926;2023-06-05T21:01:04;9.52;;;4.80;;
37349;SDS011;23231;52.358;4.926;2023-06-05T21:06:05;9.90;;;4.95;;
37349;SDS011;23231;52.358;4.926;2023-06-05T21:11:05;10.38;;;5.18;;
37349;SDS011;23231;52.358;4.926;2023-06-05T21:16:06;9.32;;;5.05;;
37349;SDS011;23231;52.358;4.926;2023-06-05T21:21:07;8.05;;;4.95;;
37349;SDS011;23231;52.358;4.926;2023-06-05T21:26:07;11.98;;;5.10;;
37349;SDS011;23231;52.358;4.926;2023-06-05T21:31:07;11.55;;;5.03;;
37349;SDS011;23231;52.358;4.926;2023-06-05T21:36:08;9.18;;;4.80;;
37349;SDS011;23231;52.358;4.926;2023-06-05T21:41:08;9.73;;;5.25;;
37349;SDS011;23231;52.358;4.926;2023-06-05T21:46:09;10.07;;;4.97;;
37349;SDS011;23231;52.358;4.926;2023-06-05T21:51:10;8.10;;;4.70;;
37349;SDS011;23231;52.358;4.926;2023-06-05T21:56:11;9.95;;;4.80;;
37349;SDS011;23231;52.358;4.926;2023-06-05T22:01:11;8.50;;;5.05;;
37349;SDS011;23231;52.358;4.926;2023-06-05T22:06:12;10.30;;;4.80;;
37349;SDS011;23231;52.358;4.926;2023-06-05T22:11:12;12.63;;;5.10;;
37349;SDS011;23231;52.358;4.926;2023-06-05T22:16:13;8.52;;;4.65;;
37349;SDS011;23231;52.358;4.926;2023-06-05T22:21:13;12.82;;;5.05;;
37349;SDS011;23231;52.358;4.926;2023-06-05T22:26:16;8.52;;;4.90;;
37349;SDS011;23231;52.358;4.926;2023-06-05T22:31:17;10.05;;;5.10;;
37349;SDS011;23231;52.358;4.926;2023-06-05T22:36:19;9.25;;;4.50;;
37349;SDS011;23231;52.358;4.926;2023-06-05T22:41:29;8.77;;;4.90;;
37349;SDS011;23231;52.358;4.926;2023-06-05T22:46:30;7.55;;;4.28;;
37349;SDS011;23231;52.358;4.926;2023-06-05T22:51:30;9.80;;;4.97;;
37349;SDS011;23231;52.358;4.926;2023-06-05T22:56:32;10.98;;;5.40;;
37349;SDS011;23231;52.358;4.926;2023-06-05T23:01:33;9.40;;;5.20;;
37349;SDS011;23231;52.358;4.926;2023-06-05T23:06:33;12.20;;;5.00;;
37349;SDS011;23231;52.358;4.926;2023-06-05T23:11:34;8.25;;;5.20;;
37349;SDS011;23231;52.358;4.926;2023-06-05T23:16:35;9.95;;;4.78;;
37349;SDS011;23231;52.358;4.926;2023-06-05T23:21:35;13.98;;;4.65;;
37349;SDS011;23231;52.358;4.926;2023-06-05T23:26:36;8.25;;;4.70;;
37349;SDS011;23231;52.358;4.926;2023-06-05T23:31:36;10.85;;;5.20;;
37349;SDS011;23231;52.358;4.926;2023-06-05T23:36:38;11.05;;;4.80;;
37349;SDS011;23231;52.358;4.926;2023-06-05T23:41:41;9.18;;;5.57;;
37349;SDS011;23231;52.358;4.926;2023-06-05T23:46:45;10.50;;;5.25;;
37349;SDS011;23231;52.358;4.926;2023-06-05T23:51:46;9.70;;;5.40;;
37349;SDS011;23231;52.358;4.926;2023-06-05T23:56:46;11.82;;;4.85;;
